sensor_id;sensor_type;location;lat;lon;timestamp;pressure;altitude;pressure_sealevel;temperature;humidity
70437;BME280;57877;39.750;-104.894;2023-07-30T00:01:23;84256.86;;;33.50;20.76
70437;BME280;57877;39.750;-104.894;2023-07-30T00:03:48;84258.56;;;33.56;20.56
70437;BME280;57877;39.750;-104.894;2023-07-30T00:06:13;84263.03;;;33.76;21.05
70437;BME280;57877;39.750;-104.894;2023-07-30T00:08:39;84266.89;;;33.42;20.45
70437;BME280;57877;39.750;-104.894;2023-07-30T00:11:04;84266.65;;;33.77;20.66
70437;BME280;57877;39.750;-104.894;2023-07-30T00:13:29;84270.45;;;33.79;20.53
70437;BME280;57877;39.750;-104.894;2023-07-30T00:15:54;84275.49;;;33.62;20.42
70437;BME280;57877;39.750;-104.894;2023-07-30T00:18:19;84281.04;;;33.99;20.40
70437;BME280;57877;39.750;-104.894;2023-07-30T00:20:44;84287.06;;;33.77;20.16
70437;BME280;57877;39.750;-104.894;2023-07-30T00:23:09;84293.54;;;33.87;20.41
70437;BME280;57877;39.750;-104.894;2023-07-30T00:25:35;84297.68;;;34.26;20.20
70437;BME280;57877;39.750;-104.894;2023-07-30T00:27:59;84300.20;;;33.92;20.24
70437;BME280;57877;39.750;-104.894;2023-07-30T00:30:25;84297.68;;;34.01;19.66
70437;BME280;57877;39.750;-104.894;2023-07-30T00:32:50;84293.86;;;34.16;19.98
70437;BME280;57877;39.750;-104.894;2023-07-30T00:35:15;84292.73;;;33.83;19.53
70437;BME280;57877;39.750;-104.894;2023-07-30T00:37:40;84299.69;;;33.84;19.37
70437;BME280;57877;39.750;-104.894;2023-07-30T00:40:06;84303.60;;;33.88;19.54
70437;BME280;57877;39.750;-104.894;2023-07-30T00:42:30;84308.82;;;33.98;19.38
70437;BME280;57877;39.750;-104.894;2023-07-30T00:44:55;84311.53;;;33.36;19.76
70437;BME280;57877;39.750;-104.894;2023-07-30T00:47:21;84315.78;;;33.59;20.08
70437;BME280;57877;39.750;-104.894;2023-07-30T00:49:45;84322.22;;;33.36;20.04
70437;BME280;57877;39.750;-104.894;2023-07-30T00:52:11;84327.92;;;33.36;19.83
70437;BME280;57877;39.750;-104.894;2023-07-30T00:54:36;84337.01;;;32.98;20.63
70437;BME280;57877;39.750;-104.894;2023-07-30T00:57:01;84340.58;;;31.66;23.46
70437;BME280;57877;39.750;-104.894;2023-07-30T00:59:26;84343.47;;;31.61;24.41
70437;BME280;57877;39.750;-104.894;2023-07-30T01:01:52;84343.39;;;31.14;25.82
70437;BME280;57877;39.750;-104.894;2023-07-30T01:04:16;84351.89;;;31.67;25.33
70437;BME280;57877;39.750;-104.894;2023-07-30T01:06:41;84351.65;;;31.29;26.08
70437;BME280;57877;39.750;-104.894;2023-07-30T01:09:06;84354.81;;;30.31;28.80
70437;BME280;57877;39.750;-104.894;2023-07-30T01:11:31;84354.18;;;30.52;28.40
70437;BME280;57877;39.750;-104.894;2023-07-30T01:13:57;84357.29;;;30.95;28.05
70437;BME280;57877;39.750;-104.894;2023-07-30T01:16:21;84358.64;;;30.32;28.52
70437;BME280;57877;39.750;-104.894;2023-07-30T01:18:46;84359.83;;;29.85;29.63
70437;BME280;57877;39.750;-104.894;2023-07-30T01:21:12;84359.07;;;29.83;29.49
70437;BME280;57877;39.750;-104.894;2023-07-30T01:23:37;84359.96;;;30.32;29.20
70437;BME280;57877;39.750;-104.894;2023-07-30T01:26:07;84358.58;;;29.76;29.96
70437;BME280;57877;39.750;-104.894;2023-07-30T01:28:28;84361.43;;;29.88;29.77
70437;BME280;57877;39.750;-104.894;2023-07-30T01:30:52;84366.63;;;28.49;32.11
70437;BME280;57877;39.750;-104.894;2023-07-30T01:33:17;84364.24;;;28.16;33.11
70437;BME280;57877;39.750;-104.894;2023-07-30T01:35:43;84359.07;;;28.85;32.11
70437;BME280;57877;39.750;-104.894;2023-07-30T01:38:08;84358.95;;;28.67;32.61
70437;BME280;57877;39.750;-104.894;2023-07-30T01:40:32;84361.04;;;28.00;33.15
70437;BME280;57877;39.750;-104.894;2023-07-30T01:42:58;84369.30;;;27.74;35.11
70437;BME280;57877;39.750;-104.894;2023-07-30T01:45:22;84369.69;;;28.29;36.73
70437;BME280;57877;39.750;-104.894;2023-07-30T01:47:47;84372.40;;;28.41;39.41
70437;BME280;57877;39.750;-104.894;2023-07-30T01:50:12;84365.11;;;28.68;39.65
70437;BME280;57877;39.750;-104.894;2023-07-30T01:52:37;84365.46;;;28.90;40.29
70437;BME280;57877;39.750;-104.894;2023-07-30T01:55:03;84359.03;;;28.63;41.51
70437;BME280;57877;39.750;-104.894;2023-07-30T01:57:28;84353.37;;;28.53;42.24
70437;BME280;57877;39.750;-104.894;2023-07-30T01:59:53;84347.91;;;28.64;41.33
70437;BME280;57877;39.750;-104.894;2023-07-30T02:02:18;84348.15;;;28.04;41.50
70437;BME280;57877;39.750;-104.894;2023-07-30T02:04:43;84337.45;;;27.93;39.33
70437;BME280;57877;39.750;-104.894;2023-07-30T02:07:08;84332.26;;;27.77;40.79
70437;BME280;57877;39.750;-104.894;2023-07-30T02:09:33;84324.19;;;28.01;40.55
70437;BME280;57877;39.750;-104.894;2023-07-30T02:11:58;84318.25;;;27.85;40.49
70437;BME280;57877;39.750;-104.894;2023-07-30T02:14:23;84314.31;;;27.70;41.69
70437;BME280;57877;39.750;-104.894;2023-07-30T02:16:48;84305.48;;;27.79;41.46
70437;BME280;57877;39.750;-104.894;2023-07-30T02:19:13;84297.60;;;27.06;40.67
70437;BME280;57877;39.750;-104.894;2023-07-30T02:21:38;84300.72;;;26.82;41.49
70437;BME280;57877;39.750;-104.894;2023-07-30T02:24:04;84300.37;;;26.84;41.68
70437;BME280;57877;39.750;-104.894;2023-07-30T02:26:29;84307.98;;;27.18;40.97
70437;BME280;57877;39.750;-104.894;2023-07-30T02:28:56;84311.31;;;27.46;42.15
70437;BME280;57877;39.750;-104.894;2023-07-30T02:31:20;84320.44;;;27.31;43.03
70437;BME280;57877;39.750;-104.894;2023-07-30T02:33:47;84326.00;;;27.12;41.98
70437;BME280;57877;39.750;-104.894;2023-07-30T02:36:12;84328.65;;;26.60;42.75
70437;BME280;57877;39.750;-104.894;2023-07-30T02:38:37;84334.64;;;26.83;42.80
70437;BME280;57877;39.750;-104.894;2023-07-30T02:41:02;84339.71;;;25.97;43.29
70437;BME280;57877;39.750;-104.894;2023-07-30T02:43:27;84349.35;;;26.09;44.13
70437;BME280;57877;39.750;-104.894;2023-07-30T02:45:52;84357.24;;;25.77;43.75
70437;BME280;57877;39.750;-104.894;2023-07-30T02:48:17;84362.69;;;25.78;42.36
70437;BME280;57877;39.750;-104.894;2023-07-30T02:50:41;84370.17;;;26.54;41.33
70437;BME280;57877;39.750;-104.894;2023-07-30T02:53:08;84374.08;;;26.15;41.16
70437;BME280;57877;39.750;-104.894;2023-07-30T02:55:32;84376.11;;;26.37;40.44
70437;BME280;57877;39.750;-104.894;2023-07-30T02:57:57;84376.13;;;25.79;39.53
70437;BME280;57877;39.750;-104.894;2023-07-30T03:00:24;84379.21;;;26.56;38.74
70437;BME280;57877;39.750;-104.894;2023-07-30T03:02:47;84385.33;;;26.83;38.53
70437;BME280;57877;39.750;-104.894;2023-07-30T03:05:12;84389.07;;;26.64;37.76
70437;BME280;57877;39.750;-104.894;2023-07-30T03:07:38;84389.86;;;26.94;37.77
70437;BME280;57877;39.750;-104.894;2023-07-30T03:10:02;84391.04;;;26.21;38.72
70437;BME280;57877;39.750;-104.894;2023-07-30T03:12:27;84390.43;;;26.51;38.51
70437;BME280;57877;39.750;-104.894;2023-07-30T03:14:52;84396.88;;;26.88;37.95
70437;BME280;57877;39.750;-104.894;2023-07-30T03:17:17;84405.39;;;26.86;37.06
70437;BME280;57877;39.750;-104.894;2023-07-30T03:19:42;84412.32;;;26.83;38.05
70437;BME280;57877;39.750;-104.894;2023-07-30T03:22:07;84415.02;;;26.68;37.67
70437;BME280;57877;39.750;-104.894;2023-07-30T03:24:32;84419.00;;;26.46;38.03
70437;BME280;57877;39.750;-104.894;2023-07-30T03:26:57;84418.52;;;26.16;38.13
70437;BME280;57877;39.750;-104.894;2023-07-30T03:29:24;84415.57;;;26.92;37.71
70437;BME280;57877;39.750;-104.894;2023-07-30T03:31:48;84416.56;;;26.85;38.93
70437;BME280;57877;39.750;-104.894;2023-07-30T03:34:12;84415.27;;;26.85;37.34
70437;BME280;57877;39.750;-104.894;2023-07-30T03:36:37;84408.89;;;26.54;38.02
70437;BME280;57877;39.750;-104.894;2023-07-30T03:39:04;84400.44;;;26.57;37.71
70437;BME280;57877;39.750;-104.894;2023-07-30T03:41:27;84401.51;;;26.81;37.57
70437;BME280;57877;39.750;-104.894;2023-07-30T03:43:53;84396.62;;;26.53;37.16
70437;BME280;57877;39.750;-104.894;2023-07-30T03:46:18;84397.84;;;26.83;37.11
70437;BME280;57877;39.750;-104.894;2023-07-30T03:48:42;84397.23;;;26.51;36.67
70437;BME280;57877;39.750;-104.894;2023-07-30T03:51:08;84402.68;;;26.48;36.74
70437;BME280;57877;39.750;-104.894;2023-07-30T03:53:33;84408.83;;;27.03;37.83
70437;BME280;57877;39.750;-104.894;2023-07-30T03:55:58;84416.43;;;27.26;38.30
70437;BME280;57877;39.750;-104.894;2023-07-30T03:58:23;84421.42;;;27.39;37.45
70437;BME280;57877;39.750;-104.894;2023-07-30T04:00:48;84423.01;;;27.10;37.29
70437;BME280;57877;39.750;-104.894;2023-07-30T04:03:12;84423.26;;;27.53;37.40
70437;BME280;57877;39.750;-104.894;2023-07-30T04:05:38;84427.45;;;27.32;37.85
70437;BME280;57877;39.750;-104.894;2023-07-30T04:08:03;84430.41;;;27.26;36.87
70437;BME280;57877;39.750;-104.894;2023-07-30T04:10:28;84432.43;;;27.38;37.66
70437;BME280;57877;39.750;-104.894;2023-07-30T04:12:53;84437.38;;;27.25;38.02
70437;BME280;57877;39.750;-104.894;2023-07-30T04:15:18;84439.65;;;26.88;36.64
70437;BME280;57877;39.750;-104.894;2023-07-30T04:17:43;84444.58;;;26.85;36.76
70437;BME280;57877;39.750;-104.894;2023-07-30T04:20:09;84444.28;;;26.90;37.16
70437;BME280;57877;39.750;-104.894;2023-07-30T04:22:33;84445.42;;;26.80;36.98
70437;BME280;57877;39.750;-104.894;2023-07-30T04:24:58;84445.10;;;26.91;38.33
70437;BME280;57877;39.750;-104.894;2023-07-30T04:27:23;84446.94;;;27.16;37.83
70437;BME280;57877;39.750;-104.894;2023-07-30T04:29:48;84452.98;;;27.35;37.66
70437;BME280;57877;39.750;-104.894;2023-07-30T04:32:13;84451.38;;;27.28;36.82
70437;BME280;57877;39.750;-104.894;2023-07-30T04:34:38;84447.00;;;27.00;35.86
70437;BME280;57877;39.750;-104.894;2023-07-30T04:37:03;84446.24;;;26.61;34.30
70437;BME280;57877;39.750;-104.894;2023-07-30T04:39:29;84445.69;;;26.70;33.02
70437;BME280;57877;39.750;-104.894;2023-07-30T04:41:53;84449.76;;;27.02;33.68
70437;BME280;57877;39.750;-104.894;2023-07-30T04:44:18;84447.68;;;27.14;31.24
70437;BME280;57877;39.750;-104.894;2023-07-30T04:46:43;84447.36;;;26.74;30.71
70437;BME280;57877;39.750;-104.894;2023-07-30T04:49:08;84443.82;;;26.85;29.08
70437;BME280;57877;39.750;-104.894;2023-07-30T04:51:33;84444.13;;;27.11;27.96
70437;BME280;57877;39.750;-104.894;2023-07-30T04:53:58;84443.06;;;26.75;28.10
70437;BME280;57877;39.750;-104.894;2023-07-30T04:56:23;84444.73;;;27.16;29.69
70437;BME280;57877;39.750;-104.894;2023-07-30T04:58:48;84444.18;;;27.29;29.25
70437;BME280;57877;39.750;-104.894;2023-07-30T05:01:13;84441.56;;;27.26;28.92
70437;BME280;57877;39.750;-104.894;2023-07-30T05:03:38;84440.59;;;27.04;27.99
70437;BME280;57877;39.750;-104.894;2023-07-30T05:06:03;84435.21;;;26.92;28.00
70437;BME280;57877;39.750;-104.894;2023-07-30T05:08:28;84436.12;;;26.52;27.89
70437;BME280;57877;39.750;-104.894;2023-07-30T05:10:53;84432.74;;;26.85;27.49
70437;BME280;57877;39.750;-104.894;2023-07-30T05:13:18;84425.24;;;26.23;27.47
70437;BME280;57877;39.750;-104.894;2023-07-30T05:15:44;84420.11;;;26.33;27.21
70437;BME280;57877;39.750;-104.894;2023-07-30T05:18:09;84417.13;;;26.06;27.15
70437;BME280;57877;39.750;-104.894;2023-07-30T05:20:34;84414.53;;;25.68;27.17
70437;BME280;57877;39.750;-104.894;2023-07-30T05:22:59;84408.34;;;26.10;26.93
70437;BME280;57877;39.750;-104.894;2023-07-30T05:25:24;84404.84;;;26.07;26.17
70437;BME280;57877;39.750;-104.894;2023-07-30T05:27:49;84405.46;;;25.33;26.03
70437;BME280;57877;39.750;-104.894;2023-07-30T05:30:14;84402.45;;;25.50;25.76
70437;BME280;57877;39.750;-104.894;2023-07-30T05:32:39;84407.49;;;25.64;25.29
70437;BME280;57877;39.750;-104.894;2023-07-30T05:35:05;84406.89;;;25.89;24.95
70437;BME280;57877;39.750;-104.894;2023-07-30T05:37:29;84402.94;;;25.60;24.56
70437;BME280;57877;39.750;-104.894;2023-07-30T05:39:54;84401.94;;;25.51;24.73
70437;BME280;57877;39.750;-104.894;2023-07-30T05:42:19;84403.79;;;25.83;24.54
70437;BME280;57877;39.750;-104.894;2023-07-30T05:44:44;84405.02;;;25.62;24.47
70437;BME280;57877;39.750;-104.894;2023-07-30T05:47:09;84408.30;;;25.02;24.83
70437;BME280;57877;39.750;-104.894;2023-07-30T05:49:34;84409.06;;;25.02;24.92
70437;BME280;57877;39.750;-104.894;2023-07-30T05:51:59;84407.67;;;24.97;24.67
70437;BME280;57877;39.750;-104.894;2023-07-30T05:54:24;84400.31;;;24.25;24.83
70437;BME280;57877;39.750;-104.894;2023-07-30T05:56:49;84398.22;;;24.85;24.26
70437;BME280;57877;39.750;-104.894;2023-07-30T05:59:15;84395.56;;;24.86;24.44
70437;BME280;57877;39.750;-104.894;2023-07-30T06:01:40;84395.06;;;24.71;24.33
70437;BME280;57877;39.750;-104.894;2023-07-30T06:04:05;84397.44;;;24.02;25.20
70437;BME280;57877;39.750;-104.894;2023-07-30T06:06:30;84393.43;;;24.74;24.12
70437;BME280;57877;39.750;-104.894;2023-07-30T06:08:55;84397.32;;;24.66;23.80
70437;BME280;57877;39.750;-104.894;2023-07-30T06:11:20;84393.05;;;24.24;24.25
70437;BME280;57877;39.750;-104.894;2023-07-30T06:13:45;84390.11;;;24.46;23.92
70437;BME280;57877;39.750;-104.894;2023-07-30T06:16:10;84388.03;;;24.38;23.87
70437;BME280;57877;39.750;-104.894;2023-07-30T06:18:35;84392.39;;;24.15;24.16
70437;BME280;57877;39.750;-104.894;2023-07-30T06:21:00;84385.04;;;23.93;24.32
70437;BME280;57877;39.750;-104.894;2023-07-30T06:23:25;84374.59;;;24.74;23.57
70437;BME280;57877;39.750;-104.894;2023-07-30T06:25:50;84384.71;;;24.68;23.66
70437;BME280;57877;39.750;-104.894;2023-07-30T06:28:15;84382.11;;;24.21;23.97
70437;BME280;57877;39.750;-104.894;2023-07-30T06:30:40;84381.63;;;23.86;24.58
70437;BME280;57877;39.750;-104.894;2023-07-30T06:33:05;84380.14;;;23.99;24.39
70437;BME280;57877;39.750;-104.894;2023-07-30T06:35:30;84376.16;;;24.36;24.12
70437;BME280;57877;39.750;-104.894;2023-07-30T06:37:55;84377.34;;;24.46;24.00
70437;BME280;57877;39.750;-104.894;2023-07-30T06:40:20;84377.71;;;24.58;23.76
70437;BME280;57877;39.750;-104.894;2023-07-30T06:42:45;84373.71;;;24.25;23.80
70437;BME280;57877;39.750;-104.894;2023-07-30T06:45:11;84370.89;;;24.29;24.09
70437;BME280;57877;39.750;-104.894;2023-07-30T06:47:35;84371.70;;;24.24;24.07
70437;BME280;57877;39.750;-104.894;2023-07-30T06:50:00;84367.44;;;23.91;24.47
70437;BME280;57877;39.750;-104.894;2023-07-30T06:52:25;84365.35;;;24.43;24.20
70437;BME280;57877;39.750;-104.894;2023-07-30T06:54:51;84366.83;;;24.19;24.41
70437;BME280;57877;39.750;-104.894;2023-07-30T06:57:16;84362.46;;;24.33;24.24
70437;BME280;57877;39.750;-104.894;2023-07-30T06:59:41;84362.67;;;23.96;24.46
70437;BME280;57877;39.750;-104.894;2023-07-30T07:02:06;84362.47;;;24.66;24.27
70437;BME280;57877;39.750;-104.894;2023-07-30T07:04:31;84360.87;;;23.66;25.07
70437;BME280;57877;39.750;-104.894;2023-07-30T07:06:56;84359.46;;;23.54;25.37
70437;BME280;57877;39.750;-104.894;2023-07-30T07:09:21;84352.32;;;23.77;25.16
70437;BME280;57877;39.750;-104.894;2023-07-30T07:11:46;84346.54;;;23.91;24.97
70437;BME280;57877;39.750;-104.894;2023-07-30T07:14:11;84344.64;;;23.74;24.77
70437;BME280;57877;39.750;-104.894;2023-07-30T07:16:36;84337.79;;;24.04;24.96
70437;BME280;57877;39.750;-104.894;2023-07-30T07:19:01;84333.72;;;23.90;25.11
70437;BME280;57877;39.750;-104.894;2023-07-30T07:21:26;84334.72;;;23.27;25.53
70437;BME280;57877;39.750;-104.894;2023-07-30T07:23:51;84335.42;;;23.53;25.70
70437;BME280;57877;39.750;-104.894;2023-07-30T07:26:16;84332.55;;;24.07;25.31
70437;BME280;57877;39.750;-104.894;2023-07-30T07:28:42;84331.53;;;22.80;26.48
70437;BME280;57877;39.750;-104.894;2023-07-30T07:31:07;84325.05;;;23.25;26.17
70437;BME280;57877;39.750;-104.894;2023-07-30T07:33:32;84319.54;;;22.87;26.50
70437;BME280;57877;39.750;-104.894;2023-07-30T07:36:03;84320.41;;;23.33;26.14
70437;BME280;57877;39.750;-104.894;2023-07-30T07:38:22;84317.91;;;23.33;26.30
70437;BME280;57877;39.750;-104.894;2023-07-30T07:40:47;84314.36;;;23.10;26.62
70437;BME280;57877;39.750;-104.894;2023-07-30T07:43:12;84315.08;;;22.73;26.95
70437;BME280;57877;39.750;-104.894;2023-07-30T07:45:37;84310.53;;;22.90;26.54
70437;BME280;57877;39.750;-104.894;2023-07-30T07:48:02;84303.72;;;22.94;26.49
70437;BME280;57877;39.750;-104.894;2023-07-30T07:50:27;84300.24;;;22.89;26.88
70437;BME280;57877;39.750;-104.894;2023-07-30T07:52:52;84299.10;;;22.94;26.55
70437;BME280;57877;39.750;-104.894;2023-07-30T07:55:17;84301.66;;;23.58;26.11
70437;BME280;57877;39.750;-104.894;2023-07-30T07:57:42;84305.32;;;23.65;25.89
70437;BME280;57877;39.750;-104.894;2023-07-30T08:00:08;84305.70;;;23.57;25.67
70437;BME280;57877;39.750;-104.894;2023-07-30T08:02:32;84309.08;;;24.39;25.64
70437;BME280;57877;39.750;-104.894;2023-07-30T08:04:57;84308.95;;;24.46;25.58
70437;BME280;57877;39.750;-104.894;2023-07-30T08:07:22;84307.76;;;24.11;25.57
70437;BME280;57877;39.750;-104.894;2023-07-30T08:09:48;84309.71;;;24.18;25.58
70437;BME280;57877;39.750;-104.894;2023-07-30T08:12:13;84308.88;;;24.25;25.79
70437;BME280;57877;39.750;-104.894;2023-07-30T08:14:38;84307.75;;;24.14;25.82
70437;BME280;57877;39.750;-104.894;2023-07-30T08:17:03;84302.67;;;24.09;25.76
70437;BME280;57877;39.750;-104.894;2023-07-30T08:19:28;84298.17;;;24.00;25.80
70437;BME280;57877;39.750;-104.894;2023-07-30T08:21:53;84293.19;;;24.04;25.66
70437;BME280;57877;39.750;-104.894;2023-07-30T08:24:18;84290.47;;;23.81;25.91
70437;BME280;57877;39.750;-104.894;2023-07-30T08:26:43;84294.69;;;24.05;26.99
70437;BME280;57877;39.750;-104.894;2023-07-30T08:29:08;84300.50;;;24.09;26.77
70437;BME280;57877;39.750;-104.894;2023-07-30T08:31:33;84297.99;;;23.87;27.10
70437;BME280;57877;39.750;-104.894;2023-07-30T08:33:58;84295.37;;;23.44;27.68
70437;BME280;57877;39.750;-104.894;2023-07-30T08:36:23;84290.04;;;23.11;27.55
70437;BME280;57877;39.750;-104.894;2023-07-30T08:38:48;84287.11;;;22.58;28.45
70437;BME280;57877;39.750;-104.894;2023-07-30T08:41:13;84283.83;;;22.52;28.13
70437;BME280;57877;39.750;-104.894;2023-07-30T08:43:39;84279.25;;;23.11;27.51
70437;BME280;57877;39.750;-104.894;2023-07-30T08:46:09;84281.80;;;23.43;28.24
70437;BME280;57877;39.750;-104.894;2023-07-30T08:48:29;84281.01;;;23.38;28.05
70437;BME280;57877;39.750;-104.894;2023-07-30T08:50:57;84275.79;;;23.40;28.12
70437;BME280;57877;39.750;-104.894;2023-07-30T08:53:19;84269.96;;;23.31;27.73
70437;BME280;57877;39.750;-104.894;2023-07-30T08:55:44;84264.60;;;23.24;27.42
70437;BME280;57877;39.750;-104.894;2023-07-30T08:58:10;84256.88;;;23.09;27.17
70437;BME280;57877;39.750;-104.894;2023-07-30T09:00:36;84251.46;;;22.51;27.39
70437;BME280;57877;39.750;-104.894;2023-07-30T09:03:00;84246.35;;;22.94;26.93
70437;BME280;57877;39.750;-104.894;2023-07-30T09:05:25;84247.28;;;23.20;27.09
70437;BME280;57877;39.750;-104.894;2023-07-30T09:07:49;84248.19;;;23.05;27.46
70437;BME280;57877;39.750;-104.894;2023-07-30T09:10:15;84249.29;;;23.42;27.49
70437;BME280;57877;39.750;-104.894;2023-07-30T09:12:39;84250.03;;;23.29;27.11
70437;BME280;57877;39.750;-104.894;2023-07-30T09:15:05;84248.58;;;23.00;27.56
70437;BME280;57877;39.750;-104.894;2023-07-30T09:17:29;84252.09;;;23.32;27.50
70437;BME280;57877;39.750;-104.894;2023-07-30T09:19:54;84247.42;;;22.80;27.87
70437;BME280;57877;39.750;-104.894;2023-07-30T09:22:24;84243.15;;;22.83;27.91
70437;BME280;57877;39.750;-104.894;2023-07-30T09:24:44;84241.47;;;22.71;28.24
70437;BME280;57877;39.750;-104.894;2023-07-30T09:27:09;84239.78;;;22.78;28.24
70437;BME280;57877;39.750;-104.894;2023-07-30T09:29:34;84240.42;;;22.97;28.58
70437;BME280;57877;39.750;-104.894;2023-07-30T09:31:59;84241.15;;;22.99;28.36
70437;BME280;57877;39.750;-104.894;2023-07-30T09:34:25;84244.01;;;22.18;29.05
70437;BME280;57877;39.750;-104.894;2023-07-30T09:36:52;84238.52;;;23.01;28.82
70437;BME280;57877;39.750;-104.894;2023-07-30T09:39:17;84238.09;;;22.58;28.58
70437;BME280;57877;39.750;-104.894;2023-07-30T09:41:42;84233.91;;;22.56;28.70
70437;BME280;57877;39.750;-104.894;2023-07-30T09:44:05;84227.92;;;22.75;28.88
70437;BME280;57877;39.750;-104.894;2023-07-30T09:46:30;84223.13;;;22.73;29.05
70437;BME280;57877;39.750;-104.894;2023-07-30T09:48:56;84220.77;;;22.55;28.99
70437;BME280;57877;39.750;-104.894;2023-07-30T09:51:22;84221.38;;;22.66;29.05
70437;BME280;57877;39.750;-104.894;2023-07-30T09:53:47;84219.30;;;22.55;29.24
70437;BME280;57877;39.750;-104.894;2023-07-30T09:56:12;84219.61;;;22.39;29.33
70437;BME280;57877;39.750;-104.894;2023-07-30T09:58:37;84219.27;;;22.36;29.30
70437;BME280;57877;39.750;-104.894;2023-07-30T10:01:03;84223.38;;;22.10;29.72
70437;BME280;57877;39.750;-104.894;2023-07-30T10:03:27;84218.49;;;22.55;29.46
70437;BME280;57877;39.750;-104.894;2023-07-30T10:05:54;84216.84;;;22.10;29.55
70437;BME280;57877;39.750;-104.894;2023-07-30T10:08:21;84219.11;;;21.82;29.94
70437;BME280;57877;39.750;-104.894;2023-07-30T10:10:42;84215.25;;;21.52;30.39
70437;BME280;57877;39.750;-104.894;2023-07-30T10:13:09;84214.28;;;21.98;30.52
70437;BME280;57877;39.750;-104.894;2023-07-30T10:15:35;84210.19;;;22.15;30.28
70437;BME280;57877;39.750;-104.894;2023-07-30T10:17:57;84210.55;;;22.20;30.03
70437;BME280;57877;39.750;-104.894;2023-07-30T10:20:23;84210.95;;;22.29;30.04
70437;BME280;57877;39.750;-104.894;2023-07-30T10:22:47;84209.63;;;22.37;30.81
70437;BME280;57877;39.750;-104.894;2023-07-30T10:25:13;84207.73;;;22.33;30.49
70437;BME280;57877;39.750;-104.894;2023-07-30T10:27:39;84203.89;;;22.01;30.61
70437;BME280;57877;39.750;-104.894;2023-07-30T10:30:10;84199.50;;;22.30;30.54
70437;BME280;57877;39.750;-104.894;2023-07-30T10:32:37;84199.21;;;22.33;30.37
70437;BME280;57877;39.750;-104.894;2023-07-30T10:34:55;84203.02;;;22.24;30.65
70437;BME280;57877;39.750;-104.894;2023-07-30T10:37:19;84205.56;;;21.99;30.62
70437;BME280;57877;39.750;-104.894;2023-07-30T10:39:43;84201.73;;;22.17;30.49
70437;BME280;57877;39.750;-104.894;2023-07-30T10:42:08;84203.36;;;21.75;30.64
70437;BME280;57877;39.750;-104.894;2023-07-30T10:44:35;84203.03;;;21.92;30.44
70437;BME280;57877;39.750;-104.894;2023-07-30T10:47:01;84202.75;;;21.87;30.68
70437;BME280;57877;39.750;-104.894;2023-07-30T10:49:24;84204.74;;;21.47;31.20
70437;BME280;57877;39.750;-104.894;2023-07-30T10:51:51;84206.32;;;21.27;31.37
70437;BME280;57877;39.750;-104.894;2023-07-30T10:54:14;84207.47;;;21.37;31.33
70437;BME280;57877;39.750;-104.894;2023-07-30T10:56:39;84211.07;;;21.65;31.37
70437;BME280;57877;39.750;-104.894;2023-07-30T10:59:05;84213.77;;;21.80;31.49
70437;BME280;57877;39.750;-104.894;2023-07-30T11:01:30;84217.24;;;20.95;32.49
70437;BME280;57877;39.750;-104.894;2023-07-30T11:03:57;84217.82;;;21.21;32.13
70437;BME280;57877;39.750;-104.894;2023-07-30T11:06:23;84217.95;;;21.49;31.78
70437;BME280;57877;39.750;-104.894;2023-07-30T11:08:48;84215.30;;;21.42;31.78
70437;BME280;57877;39.750;-104.894;2023-07-30T11:11:14;84216.82;;;21.73;31.71
70437;BME280;57877;39.750;-104.894;2023-07-30T11:13:45;84217.91;;;21.50;31.70
70437;BME280;57877;39.750;-104.894;2023-07-30T11:16:08;84217.26;;;21.40;31.69
70437;BME280;57877;39.750;-104.894;2023-07-30T11:18:33;84220.78;;;21.27;31.67
70437;BME280;57877;39.750;-104.894;2023-07-30T11:21:03;84222.29;;;21.19;32.15
70437;BME280;57877;39.750;-104.894;2023-07-30T11:23:25;84224.35;;;21.61;31.79
70437;BME280;57877;39.750;-104.894;2023-07-30T11:25:51;84224.38;;;21.49;31.57
70437;BME280;57877;39.750;-104.894;2023-07-30T11:30:43;84219.50;;;21.38;31.61
70437;BME280;57877;39.750;-104.894;2023-07-30T11:35:35;84218.80;;;21.02;31.60
70437;BME280;57877;39.750;-104.894;2023-07-30T11:38:00;84220.96;;;21.28;31.49
70437;BME280;57877;39.750;-104.894;2023-07-30T11:40:26;84225.58;;;21.09;31.46
70437;BME280;57877;39.750;-104.894;2023-07-30T11:42:52;84226.55;;;21.02;31.81
70437;BME280;57877;39.750;-104.894;2023-07-30T11:45:18;84228.35;;;21.14;31.72
70437;BME280;57877;39.750;-104.894;2023-07-30T11:47:44;84226.12;;;20.83;31.83
70437;BME280;57877;39.750;-104.894;2023-07-30T11:50:09;84222.81;;;20.58;32.09
70437;BME280;57877;39.750;-104.894;2023-07-30T11:52:34;84222.07;;;20.52;32.10
70437;BME280;57877;39.750;-104.894;2023-07-30T11:55:01;84221.43;;;20.50;32.11
70437;BME280;57877;39.750;-104.894;2023-07-30T11:57:34;84219.52;;;20.43;32.34
70437;BME280;57877;39.750;-104.894;2023-07-30T11:59:52;84222.81;;;20.96;31.81
70437;BME280;57877;39.750;-104.894;2023-07-30T12:02:18;84228.29;;;21.00;31.83
70437;BME280;57877;39.750;-104.894;2023-07-30T12:04:44;84230.90;;;20.81;31.56
70437;BME280;57877;39.750;-104.894;2023-07-30T12:07:09;84232.27;;;20.79;31.83
70437;BME280;57877;39.750;-104.894;2023-07-30T12:09:35;84230.85;;;21.20;31.42
70437;BME280;57877;39.750;-104.894;2023-07-30T12:12:01;84234.96;;;21.35;31.40
70437;BME280;57877;39.750;-104.894;2023-07-30T12:14:28;84238.62;;;21.30;31.18
70437;BME280;57877;39.750;-104.894;2023-07-30T12:16:50;84244.32;;;21.47;31.16
70437;BME280;57877;39.750;-104.894;2023-07-30T12:19:16;84245.52;;;21.38;30.96
70437;BME280;57877;39.750;-104.894;2023-07-30T12:21:42;84244.27;;;20.72;31.28
70437;BME280;57877;39.750;-104.894;2023-07-30T12:24:08;84243.47;;;21.20;31.26